privacy
cgnfuchur mix 151 - progressive psytrance - 06.11.2020 32:13 73 9 0 0
cgnfuchur mix 150 - progressive psytrance - anime - 04.11.2020 1:20:20 81 16 0 0
cgnfuchur mix 149 - progressive psytrance - 03.11.2020 52:12 37 15 0 0
cgnfuchur mix 148 - addicted mix - afterhour - 01.11.2020 1:21:15 37 8 0 0
cgnfuchur mix 147 - progressive house groove - 21.10.2020 35:53 80 9 0 0
cgnfuchur mix 146 - progressive psytrance 19.10.2020 43:42 85 19 0 1
cgnfuchur mix 145 - progressive psytrance 16.10.2020 54:01 65 23 1 0
cgnfuchur mix 144 - progressive psytrance 10.10.2020 1:11:54 66 23 0 0
cgnfuchur mix 143 - progressive psytrance - 08.10.2020 1:34:05 56 14 0 1
cgnfuchur mix 142 - progressive psytrance - 06.10.2020 1:57:17 50 14 0 0
cgnfuchur mix 141 - progressive psytrance - 02.10.2020 1:04:42 62 10 0 0
cgnfuchur mix 140 - progressive psytrance - 01.10.2020 1:06:30 55 7 0 0
cgnfuchur mix 139 - House Techno Groove - 28.09.2020 55:31 59 12 0 0
cgnfuchur mix 137 - TechPopHouseMix - 31.08.2020 59:23 82 4 0 0
cgnfuchur mix 136 - chilltechouse afterhour- 22.08.2020 1:20:12 79 11 0 0
cgnfuchur mix 135 -techno - 30.07.2020 1:23:36 107 10 0 0
cgnfuchur mix 133 - progressive psytrance - 20.07.2020 1:07:22 95 11 0 0
cgnfuchur mix 134 - techno - 20.07.2020 1:13:23 111 17 1 0
cgnfuchur mix 132 - progressive psytrance - 12.07.2020 50:22 122 10 1 0
cgnfuchur mix 131 - progressive psytrance - 10.07.20 1:22:59 118 9 1 0
cgnfuchur mix 130 - progressive psytrance - 09.07.2020 1:00:05 98 13 0 0
cgnfuchur mix 129 - house is feeling - 30.06.2020 57:10 130 13 1 0
cgnfuchur mix 127 - chiltec afterhour - 23.06.2020 48:39 122 10 0 0
cgnfuchur mix 126 - ibiza techno vibes - 21.06.2020 1:14:29 142 9 1 0
cgnfuchur mix 125 - house, techno, dicsco - 20.06.2020 1:09:58 130 21 0 0
cgnfuchur mix 123 - progressive psytrance - 13.06.2020 1:05:54 153 13 1 0
cgnfuchur mix 122 - progressive psytrance- 01.06.2020 1:15:46 187 32 1 0
cgnfuchur mix 121 - club beats #3 - 19.05.2020 1:18:39 209 22 1 0
cgnfuchur mix 120 - club beat techno swing - 16.05.2020 39:11 147 19 0 0
cgnfuchur mix 119 - club beats - 15.05.2020 1:57:41 189 14 0 0
cgnfuchur mix 117 - progressive psytrance - 20.04.2020 51:40 118 9 0 0
cgnfuchur mix 116 - progressive psytrance - 12.04.2020 58:18 252 22 2 1
cgnfuchur mix 114 - Progressive Psytrance - 04.04.2020 2:11:03 142 10 0 0
cgnfuchur mix 115 - progressive psytrance - 05.04.2020 1:52:22 210 14 2 0
cgnfuchur mix 113 - house #4 - 31.03.2020 58:36 124 15 1 0
cgnfuchur mix 112 - future house #3 - 30.03.2020 57:16 130 14 1 0
cgnfuchur mix 111 - trance future house #2 - 30.03.2020 1:11:51 129 16 1 0
cgnfuchur mix 110 - future house #1 - 29.03.2020 47:23 63 6 0 0
cgnfuchur mix 109 - i hate models mix - techno - 28.03.2020 1:19:44 163 25 0 0
cgnfuchur mix 108 - bass house edm exp - 27.03.2020 50:07 120 14 0 0
cgnfuchur mix 107 - psytrance - 26.03.2020 1:38:11 135 18 1 0
cgnfuchur mix 106 - psytrance - flatten the curve - 24.03.2020 1:06:16 121 21 1 0
cgnfuchur mix 105 - techno kills the virus - psytrance - 20.03.2020 2:08:42 129 21 1 0
cgnfuchur mix 104 - infected mushroom mix #2 - 19.03.2020 47:31 199 41 1 0
cgnfuchur mix 103 - infected mushroom mix - 18.03.2020 39:04 172 30 0 0
cgnfuchur mix 102 - psytrance - 17.03.2020 1:53:24 112 20 0 0
cgnfuchur mix 101 - progressive psytrance - 15.03.2020 1:56:57 110 21 1 0
cgnfuchur mix 100 - life is good - progressive psytrance - 08.03.2020 1:22:21 245 16 2 0
cgnfuchur mix 99 - progressive psytrance - 05.03.2020 1:04:15 145 19 0 0
cgnfuchur mix 98 - progressive psytrance - 03.03.2020 1:48:49 223 25 0 0
cgnfuchur mix 97 - progressive psytrance - 01.03.2020 1:37:40 117 19 1 0
cgnfuchur mix 96 - corona - progressive psytrance - 29.02.2020 1:42:31 138 33 0 0
cgnfuchur mix 95 - be the reason - progressive psytrance - 27.02.2020 1:09:31 112 20 0 0
cgnfuchur mix 94 - progressive psytrance - 22.02.2020 1:38:13 121 27 0 0
cgnfuchur mix 93 - progressive psytrance - 21.02.2020 1:13:26 69 19 0 0
cgnfuchur mix 92 - progressive psytrance - 14.02.2020 1:40:39 151 24 0 0
cgnfuchur mix 91 - progressive psytrance - 13.02.2020 1:42:40 146 15 1 0
cgnfuchur mix 90 - progressive psytrance - 10.02.2020 1:16:04 141 18 1 0
cgnfuchur mix 88 - progressive psytrance - 07.02.2020 52:38 213 27 1 0
cgnfuchur mix 87 - progressive psytrance - goa - 06.02.2020 1:01:39 166 16 0 0
cgnfuchur LIVE & NOW - mix 86 - progressive psytrance - 04.02.2020 1:09:43 183 16 1 0
cgnfuchur LIVE & NOW mix 83 - Progressive Psytrance - 02.02.2020 58:21 121 15 1 0
cgnfuchur LIVE & NOW mix 82 - Progressive Psytrance - 02.02.2020 52:44 68 14 1 0
cgnfuchur LIVE & NOW mix 85 - Progressive Psytrance - 02.02.2020 1:37:28 69 12 0 0
cgnfuchur mix 81 - progressive psytrance - 01.02.2020 1:11:06 105 17 0 0
cgnfuchur mix 80 - progressive psytrance - 31.01.2020 1:00:32 147 15 0 0
cgnfuchur mix 79 - progressive psytrance - 24.01.2020 1:05:27 131 16 1 0
cgnfuchur mix 78 - progressive psytrance - 23.01.2020 1:07:26 109 15 1 0
cgnfuchur mix 77 - progressive psytrance - 23.01.2020 1:02:42 132 10 0 0
cgnfuchur mix 76 - bang - progressive psytrance - 22.01.2020 1:17:53 117 21 0 0
cgnfuchur mix 75 - survive - progressive psytrance - 18.01.2020 1:53:14 145 19 0 0
cgnfuchur mix 74 - thumps up - progressive psytrance - 03.01.2020 1:37:26 165 15 1 0
cgnfuchur mix 73 - baldly - progressive psytrance - 02.01.2020 1:41:48 162 19 1 0
cgnfuchur mix 72 - reincarnate - progressive psytrance, edm, techno - 31.12.2019 1:13:56 123 19 1 0
cgnfuchur mix 71 - optimistic - progressive psytrance, techno, edm - 29.12.2019 1:13:33 165 26 1 0
cgnfuchur mix 70 - restart - progressive psytrance, techno, edm - 29.12.2019 1:26:17 1.201 23 1 0
cgnfuchur mix 69 - change of direction - progressive psytrance, techno, trance - 28.12.2019 1:18:59 176 29 1 0
cgnfuchur mix 68 - authentic - techno, progressive psytrance, trance - 27.12.2019 1:54:28 206 30 0 0
cgnfuchur mix 67 - rainbow horizon - progressive psytrance, techno, trance - 27.12.2019 1:31:23 218 28 1 0
cgnfuchur mix 66 - calm - techno, psytrance, trance - 23.12.2019 1:18:27 185 20 3 0
cgnfuchur mix 65 - energy - progressive psytrance - 21.12.2019 1:28:32 296 25 2 0
cgnfuchur mix 64 - sense - progressive psytrance - 20.12.2019 1:00:25 120 19 0 0
cgnfuchur mix 63 - observation - progressive psytrance - 19.12.2019 1:43:20 229 22 1 0
cgnfuchur mix 62 - new era - progressive psytrance - 18.12.2019 1:47:07 133 22 1 0
cgnfuchur mix 61 - hopeful - progressive psytrance - jacob a.o. - 16.12.2019 2:01:15 175 32 2 0
cgnfuchur mix 60 - mindful - progressive psytrance - basscannon a.o. - 14.12.2019 2:12:10 165 17 1 0
cgnfuchur mix 59 - peace - vegas (brazil) a.o. part II - progressive psytrance - 11.12.2019 52:42 139 31 4 0
cgnfuchur mix 58 cut - freedom - vegas (brazil) a.o. part I - psytrance - techno - 11.12.2019 1:50:42 149 18 1 0
cgnfuchur mix 57 - perfect illusion - progressive psytrance, house, techno - 10.12.2019 1:09:01 233 29 0 0
cgnfuchur mix 56 - trust - progressive psytrance - 08.12.2019 1:47:41 523 65 0 0
cgnfuchur mix 55 - inspiration - progressive psytrance - goa & more - 07.12.2019 1:02:40 226 20 1 0
cgnfuchur mix 54 - positive attitude - progressive psytrance - 06.12.2019 1:48:41 98 18 0 0
cgnfuchur mix 53 - resilience - progressive psytrance - 05.12.2019 1:52:22 200 16 1 0
cgnfuchur mix 52 - premonition - progressive psytrance - 03.12.2019 - 138-148 bpm - Keys: 01A-04A 1:15:21 121 20 0 0
cgnfuchur mix 51 - proud - progressive psytrance - 02.12.2019 - 148 bpm - Key 8A 9A 1:00:50 138 25 1 0
cgnfuchur mix 50 - achieved - progressive psytrance - 30.11.2019 1:47:11 134 19 1 0
cgnfuchur mix 49 - patience - psytrance - techno - 29.11.2019 1:29:22 154 13 2 1
cgnfuchur mix 48 - transformation - psytrance - 29.11.2019 - 136-147 bpm - Key:01A/02A/04A 1:41:51 85 14 0 0
cgnfuchur mix 47 - divine - techno - psytrance - 28.11.2019 33:56 130 14 2 0
cgnfuchur mix 46 - insight - techno - 28.11.2019 - 130-135 bpm - Key:5A/6A 52:35 140 13 0 0
cgnfuchur mix 45 - power - hard techno - acid - 26.11.2019 - 130-136 bpm - 01A/02A/03A/04A 55:57 254 22 1 0
cgnfuchur mix 44 - faith - acid - hard techno - 25.11.2019 - 135 bpm - Key:7A/8A/9A 1:08:40 147 13 1 0
cgnfuchur mix 43 - awake - psytrance - 22.11.2019 - 144 bpm - Key:8A/9A 44:10 118 20 0 0
cgnfuchur mix 42 - we all are one - techno - 21.11.2019 - 130 bpm - Key:1A/2A/3A/4A 49:49 145 19 0 0
cgnfuchur mix 41 - magical - psytrance - 20.11.2019 - 138 - 146 bpm - Key:3A/3B/4A 1:09:00 140 23 0 0
cgnfuchur mix 40 - vision - psytrance - 19.11.2019 - 142 bpm - Key:2A 37:52 84 13 0 0
cgnfuchur mix 39 - hope - psytrance - 18.11.2019 - 142 bpm - Key:1A 33:42 99 0 0 0
cgnfuchur mix 38 - fantasy - psytrance - 17.11.2019 - 138-150 bpm - Key:1A/2A 47:11 88 18 0 0
cgnfuchur mix 37 - accept the mystery - psytrance - 14.11.2019 - 138 bpm - Key:1A-4A 53:45 128 25 1 0
cgnfuchur mix 36 - disco - house retromix - 14.11.2019 - 125 bpm - Key: 6A/Gm 1:02:43 269 23 0 0
cgnfuchur mix 35 - it's lit - techno - all rudosa - 14.11.2019 - 132 bpm - Key:6A/Gm 53:14 111 19 1 1
cgnfuchur mix 34 - light - techno - 13.11.2019 - 130 bpm - Key: 8A/Am 54:08 134 1
cgnfuchur mix 33 - don't ask - psytrance - 11.11.2019 - 138 - 140 bpm - Key: 6A/7A/8A 1:17:44 164 36 1 0
cgnfuchur mix 32 - love - psytrance - 08.11.2019 - 140 bpm - Key:9A/10A 1:07:26 225 26 1 1
cgnfuchur mix 31 - cosmic - acid - techno - 07.11.2019 - 133 bpm - Key: Am/8A 39:41 207 15 1 0
cgnfuchur mix 30 - cut - LSD (Love, Sex, Dreams) - psytrance - 07.11.2019 - 138 - 140 bpm - Key:04A 32:45 215 24 1 0
cgnfuchur mix 29 - be nice - techno - hardtechno - 05.11.2019 - 130 bpm - Key: Bbm/3A 44:15 252 22 0 0
cgnfuchur mix 28 - be happy - psytrance - techno - 04.11.2019 - 144 bpm - Key: Eb/2A 1:01:01 410 21 0 0
cgnfuchur mix 27 - be kind - psytrance - 03.11.2019 - 144 bpm - Key:Abm/1A 30:24 182 13 2 0
cgnfuchur mix 26 - do fun shit - psytrance - 03.11.2019 - 139 bpm - Key: Abm/1A 48:10 147 11 1 0
cgnfuchur mix 25 - seize the day - techno - 03.11.2019 1:40:26 157 22 1 0
cgnfuchur mix 24 - create - techno - 31.10.2019 1:35:06 129 22 2 0
cgnfuchur mix 23 - boom! - techno - 30.10.2019 1:08:14 164 2 1
cgnfuchur mix 22 - karma - techno - 29.10.2019 46:48 89 12 0 0
cgnfuchur mix 21 - everything is connected - techno - 28.10.2019 1:01:51 102 15 1 1
cgnfuchur mix 20 cut - no regrets - techno - 26.10.2019 37:56 155 14 0 0
cgnfuchur mix 19 - let's get weird - techno - 24.10.2019 1:30:31 164 20 1 1
cgnfuchur mix 18 - exit - techno - kerstin eden - adam beyer & other - 23.10.2019 43:28 189 4 0 1
cgnfuchur mix 17 - fast speed - adam beyer mix - fasten your seatbelts - techno - hard techno - from 125 bpm till 144 bpm in 0.5 h. - 22.10.2019 33:02 106 10 0 0
cgnfuchur mix 16 - music speaks - techno - hard techno - 22.10.2019 1:21:35 196 22 1 1
cgnfuchur mix 15 - yes to all - techno - hard techno - 21.10.2019 1:05:54 134 21 1 0
cgnfuchur mix 14 - dream - dj set - techno - hard techno - 20.10.2019 40:55 123 19 0 0
cgnfuchur mix 13 - lick me - techno dj set - 19.10.2019 40:22 116 19 0 0
cgnfuchur mix 12 - hell (o) (t) here - dj set - techno mix - tech house - hard techno 49:56 176 21 2 0
cgnfuchur mix 11 - non stop - dj techno mix - dj set - tech house - techno - edm 1:50:32 226 21 0 0
cgnfuchur mix 10 - freakshow - techno beats 1:34:08 148 16 1 0
cgnfuchur mix 8 - stay wild 40:13 170 30 2 0
cgnfuchur # umek mix 26:04 187 3 0 0
cgnfuchur mix 7 - i want it all 1:10:17 135 14 0 0
cgnfuchur mix 6 - find your soul 32:43 133 19 2 1
cgnfuchur mix 5 - We See What We Want 16:52 100 29 1 0
cgnfuchur mix 4 - This Is The Sign You've Been Looking For 2:03:52 93 16 0 0
cgnfuchur @ mix 19:40 135 10 0 0
cgnfuchur @ mix 2 51:07 104 12 0 2